Arlington, VA

2:30 PM EDT on August 27, 2016 (GMT -0400)
Ashton Heights | | Change Station

Elev 280 ft 38.88 °N, 77.10 °W | Updated 30 minutes ago

Scattered Clouds
Scattered Clouds
94.5 °F
Feels Like 111 °F
N
0.7
Wind Variable Wind from SE
Gusts 0.7 mph

Today
High -- | Low -- °F
--% Chance of Precip.
Yesterday
High -- | Low -- °F
Precip. -- in
Pressure 30.17 in
Visibility 10.0 miles
Clouds Few 4000 ft
Scattered Clouds 25000 ft
Heat Index 111 °F
Dew Point 78 °F
Humidity 59%
Rainfall 0.00 in
Snow Depth Not available.
6:33 AM 7:45 PM
Waning Crescent, 22% visible
METAR KDCA 271752Z VRB03KT 10SM FEW040 SCT250 33/19 A3017 RMK AO2 SLP215 T03280189 10328 20267 58004
Pressure 30.17 in
Visibility 10.0 miles
Clouds Few 4000 ft
Scattered Clouds 25000 ft
Heat Index 111 °F
Dew Point 78 °F
Humidity 59%
Rainfall 0.00 in
Snow Depth Not available.
6:33 AM 7:45 PM
Waning Crescent, 22% visible
METAR KDCA 271752Z VRB03KT 10SM FEW040 SCT250 33/19 A3017 RMK AO2 SLP215 T03280189 10328 20267 58004

10-Day Weather Forecast

Almanac

Astronomy

Aug. 27, 2016 Rise Set
Actual Time
Civil Twilight
Nautical Twilight
Astronomical Twilight
Moon
Length of Visible Light
Length of Day
Tomorrow will be .
, % of the Moon is Illuminated

Today's Extremes

State Highs State Lows

Community

WunderPhotos

Upload Photos

1,935,396 photos uploaded!

WunderBlog® & News

Nearby

Air Quality

  Air Quality AQ Index Pollutant
Not available.

Snow Depth

Station Depth Elevation

Earthquake Activity

City Distance Mag. Time & Date
Minimum magnitude displayed is 2.5.

Coastal Water Temperatures

Place Temperature

Stations

Nearby Weather Stations

Station Location Temp. Windchill Dew Point Humidity Wind Precip. Elev Updated Type
                   

Watches & Warnings

There are currently no watches in effect.